Time;durP1;ratioP1;P1;durP2;ratioP2;P2;SDS_P1;SDS_P2;PMS_P1;PMS_P2;Temp;Humidity;BMP_temperature;BMP_pressure;BME280_temperature;BME280_humidity;BME280_pressure;Samples;Min_cycle;Max_cycle;Signal;HPM_P1;HPM_P2
2022/08/19 00:00:31;;;;;;;15.57;13.88;;;;;;;;;;8361592;28;20040;-58
2022/08/19 00:04:35;;;;;;;15.00;13.40;;;;;;;;;;8361387;28;20491;-58
2022/08/19 00:08:36;;;;;;;14.48;13.13;;;;;;;;;;8358811;28;20077;-58
2022/08/19 00:12:37;;;;;;;15.10;12.65;;;;;;;;;;8356661;28;20146;-58
2022/08/19 00:16:38;;;;;;;14.80;13.40;;;;;;;;;;8358656;28;20458;-58
2022/08/19 00:20:40;;;;;;;13.82;12.43;;;;;;;;;;8354094;28;20436;-58
2022/08/19 00:24:40;;;;;;;14.43;13.02;;;;;;;;;;8361253;28;20251;-58
2022/08/19 00:28:41;;;;;;;15.60;13.43;;;;;;;;;;8360737;28;20106;-58
2022/08/19 00:32:41;;;;;;;13.85;12.45;;;;;;;;;;8356810;28;20028;-58
2022/08/19 00:36:42;;;;;;;14.65;13.15;;;;;;;;;;8360006;28;20028;-58
2022/08/19 00:40:46;;;;;;;14.32;12.82;;;;;;;;;;8359280;28;20040;-58
2022/08/19 00:44:47;;;;;;;14.02;12.63;;;;;;;;;;8357236;28;20024;-58
2022/08/19 00:48:47;;;;;;;13.43;12.02;;;;;;;;;;8356932;28;20037;-58
2022/08/19 00:52:49;;;;;;;12.77;11.23;;;;;;;;;;8356470;28;20091;-58
2022/08/19 00:56:50;;;;;;;14.07;12.60;;;;;;;;;;8360912;28;20456;-58
2022/08/19 01:00:50;;;;;;;13.38;12.18;;;;;;;;;;8357270;28;20047;-58
2022/08/19 01:04:51;;;;;;;14.95;12.98;;;;;;;;;;8358614;28;20135;-58
2022/08/19 01:08:51;;;;;;;14.00;12.60;;;;;;;;;;8364703;28;20440;-58
2022/08/19 01:12:52;;;;;;;17.13;13.87;;;;;;;;;;8350549;28;20386;-58
2022/08/19 01:16:54;;;;;;;14.30;12.90;;;;;;;;;;8353356;28;20062;-58
2022/08/19 01:20:55;;;;;;;14.70;13.30;;;;;;;;;;8353618;28;20211;-58
2022/08/19 01:24:56;;;;;;;14.90;13.40;;;;;;;;;;8356917;28;20025;-57
2022/08/19 01:28:58;;;;;;;14.35;13.02;;;;;;;;;;8354463;28;20088;-58
2022/08/19 01:33:00;;;;;;;15.75;13.82;;;;;;;;;;8354827;28;20070;-57
2022/08/19 01:37:05;;;;;;;15.45;13.95;;;;;;;;;;8354802;28;20614;-58
2022/08/19 01:41:05;;;;;;;14.98;13.48;;;;;;;;;;8356284;28;20033;-58
2022/08/19 01:45:07;;;;;;;14.30;12.98;;;;;;;;;;8353228;28;20522;-60
2022/08/19 01:49:07;;;;;;;14.45;13.05;;;;;;;;;;8355706;28;20764;-58
2022/08/19 01:53:09;;;;;;;14.80;13.30;;;;;;;;;;8356076;28;20425;-58
2022/08/19 01:57:11;;;;;;;14.88;13.48;;;;;;;;;;8353709;28;20426;-58
2022/08/19 02:01:12;;;;;;;16.00;14.45;;;;;;;;;;8353595;28;20604;-58
2022/08/19 02:05:12;;;;;;;15.38;13.25;;;;;;;;;;8353194;28;20092;-58
2022/08/19 02:09:12;;;;;;;14.68;13.07;;;;;;;;;;8357527;28;20025;-58
2022/08/19 02:13:13;;;;;;;14.90;13.45;;;;;;;;;;8359092;28;20492;-58
2022/08/19 02:17:13;;;;;;;15.00;13.52;;;;;;;;;;8357106;28;20048;-59
2022/08/19 02:21:15;;;;;;;16.15;14.55;;;;;;;;;;8359287;28;20021;-58
2022/08/19 02:25:15;;;;;;;15.55;14.07;;;;;;;;;;8358682;28;20059;-58
2022/08/19 02:29:15;;;;;;;15.02;13.30;;;;;;;;;;8354639;28;20040;-57
2022/08/19 02:33:16;;;;;;;15.38;13.88;;;;;;;;;;8358082;28;20032;-58
2022/08/19 02:41:36;;;;;;;15.05;13.55;;;;;;;;;;8355508;28;20035;-58
2022/08/19 02:45:37;;;;;;;15.07;13.50;;;;;;;;;;8356534;28;20147;-58
2022/08/19 02:49:37;;;;;;;15.35;13.70;;;;;;;;;;8357493;28;20102;-58
2022/08/19 02:53:38;;;;;;;15.57;13.95;;;;;;;;;;8361576;28;20656;-58
2022/08/19 02:57:38;;;;;;;15.20;13.70;;;;;;;;;;8356209;28;20032;-58
2022/08/19 03:01:41;;;;;;;15.02;13.52;;;;;;;;;;8356427;28;20040;-58
2022/08/19 03:05:42;;;;;;;15.15;13.57;;;;;;;;;;8355479;28;20621;-58
2022/08/19 03:09:42;;;;;;;13.90;12.60;;;;;;;;;;8359097;28;20103;-58
2022/08/19 03:13:43;;;;;;;16.00;14.40;;;;;;;;;;8356333;28;20630;-58
2022/08/19 03:17:43;;;;;;;14.10;12.80;;;;;;;;;;8361432;28;20197;-58
2022/08/19 03:21:47;;;;;;;14.48;13.07;;;;;;;;;;8361652;28;20028;-58
2022/08/19 03:25:47;;;;;;;14.90;13.10;;;;;;;;;;8361047;28;20416;-58
2022/08/19 03:29:48;;;;;;;13.50;12.10;;;;;;;;;;8358580;28;20473;-57
2022/08/19 03:33:49;;;;;;;15.23;12.47;;;;;;;;;;8357889;28;20036;-58
2022/08/19 03:37:50;;;;;;;14.02;12.68;;;;;;;;;;8360399;28;20028;-58
2022/08/19 03:41:56;;;;;;;12.52;11.32;;;;;;;;;;8357528;28;20035;-57
2022/08/19 03:46:02;;;;;;;13.63;12.20;;;;;;;;;;8352240;28;20650;-58
2022/08/19 03:50:02;;;;;;;13.13;11.73;;;;;;;;;;8357670;28;20289;-58
2022/08/19 03:54:04;;;;;;;13.40;12.00;;;;;;;;;;8363412;28;20027;-58
2022/08/19 03:58:06;;;;;;;13.30;12.00;;;;;;;;;;8358770;28;20044;-58
2022/08/19 04:02:08;;;;;;;12.63;11.45;;;;;;;;;;8361076;28;20060;-58
2022/08/19 04:06:10;;;;;;;13.63;12.02;;;;;;;;;;8361089;28;20020;-58
2022/08/19 04:10:10;;;;;;;11.23;10.00;;;;;;;;;;8364056;28;20024;-58
2022/08/19 04:14:12;;;;;;;11.65;10.55;;;;;;;;;;8368402;28;20052;-58
2022/08/19 04:18:12;;;;;;;12.82;11.43;;;;;;;;;;8360341;28;20036;-58
2022/08/19 04:22:12;;;;;;;11.75;10.55;;;;;;;;;;8363276;28;20361;-58
2022/08/19 04:26:14;;;;;;;11.90;10.10;;;;;;;;;;8362576;28;20276;-58
2022/08/19 04:30:14;;;;;;;12.40;11.07;;;;;;;;;;8356957;28;20378;-58
2022/08/19 04:34:15;;;;;;;10.97;9.83;;;;;;;;;;8362765;28;20043;-56
2022/08/19 04:38:17;;;;;;;12.38;9.90;;;;;;;;;;8364022;28;20633;-58
2022/08/19 04:46:37;;;;;;;10.75;9.68;;;;;;;;;;8362884;28;20155;-58
2022/08/19 04:50:40;;;;;;;11.13;10.00;;;;;;;;;;8362792;28;20482;-58
2022/08/19 04:54:40;;;;;;;11.15;10.15;;;;;;;;;;8365248;28;20519;-58
2022/08/19 04:58:42;;;;;;;12.13;9.93;;;;;;;;;;8357158;28;20245;-58
2022/08/19 05:02:42;;;;;;;11.45;10.30;;;;;;;;;;8361984;28;20041;-58
2022/08/19 05:06:43;;;;;;;13.52;10.30;;;;;;;;;;8362141;28;20039;-58
2022/08/19 05:10:43;;;;;;;11.80;10.60;;;;;;;;;;8363006;28;20031;-58
2022/08/19 05:14:45;;;;;;;11.30;9.68;;;;;;;;;;8362452;28;20035;-58
2022/08/19 05:23:04;;;;;;;10.43;9.32;;;;;;;;;;8361514;28;20151;-57
2022/08/19 05:27:05;;;;;;;11.38;10.23;;;;;;;;;;8357969;28;20021;-57
2022/08/19 05:31:05;;;;;;;11.40;10.20;;;;;;;;;;8359713;28;20501;-57
2022/08/19 05:35:06;;;;;;;10.48;9.07;;;;;;;;;;8361171;28;20384;-57
2022/08/19 05:39:07;;;;;;;12.73;10.15;;;;;;;;;;8364841;28;20443;-57
2022/08/19 05:43:07;;;;;;;9.60;8.70;;;;;;;;;;8362887;28;20916;-58
2022/08/19 05:47:08;;;;;;;12.32;9.60;;;;;;;;;;8359251;28;20106;-58
2022/08/19 05:51:08;;;;;;;11.30;9.23;;;;;;;;;;8356626;28;20028;-58
2022/08/19 05:55:09;;;;;;;9.90;8.90;;;;;;;;;;8357824;28;20028;-58
2022/08/19 05:59:11;;;;;;;12.75;9.82;;;;;;;;;;8361460;28;20049;-57
2022/08/19 06:03:11;;;;;;;10.68;9.20;;;;;;;;;;8359282;28;20043;-58
2022/08/19 06:07:11;;;;;;;10.48;9.35;;;;;;;;;;8361584;28;20962;-58
2022/08/19 06:11:14;;;;;;;11.00;9.75;;;;;;;;;;8360765;28;20070;-57
2022/08/19 06:15:14;;;;;;;11.47;10.10;;;;;;;;;;8360512;28;20016;-58
2022/08/19 06:19:15;;;;;;;9.45;8.43;;;;;;;;;;8362017;28;20040;-57
2022/08/19 06:23:16;;;;;;;8.85;7.95;;;;;;;;;;8363005;28;20401;-57
2022/08/19 06:27:16;;;;;;;9.57;8.57;;;;;;;;;;8360259;28;20072;-57
2022/08/19 06:31:18;;;;;;;9.38;8.13;;;;;;;;;;8357471;28;20032;-57
2022/08/19 06:35:18;;;;;;;10.90;7.60;;;;;;;;;;8360294;28;20826;-58
2022/08/19 06:39:20;;;;;;;10.00;8.47;;;;;;;;;;8361892;28;20032;-58
2022/08/19 06:43:22;;;;;;;10.18;7.40;;;;;;;;;;8360775;28;20498;-57
2022/08/19 06:47:22;;;;;;;8.90;7.65;;;;;;;;;;8370465;28;20097;-58
2022/08/19 06:51:23;;;;;;;9.57;8.23;;;;;;;;;;8376760;28;20020;-59
2022/08/19 06:55:30;;;;;;;9.23;8.18;;;;;;;;;;8397112;28;20028;-58
2022/08/19 06:59:32;;;;;;;11.23;8.30;;;;;;;;;;8392029;28;20020;-58
2022/08/19 07:03:35;;;;;;;9.50;8.60;;;;;;;;;;8388205;28;20032;-58
2022/08/19 07:07:35;;;;;;;9.93;8.95;;;;;;;;;;8391909;28;20196;-58
2022/08/19 07:11:35;;;;;;;8.60;7.70;;;;;;;;;;8398848;28;20604;-58
2022/08/19 07:15:36;;;;;;;9.03;8.07;;;;;;;;;;8403749;28;20029;-59
2022/08/19 07:19:39;;;;;;;8.45;7.50;;;;;;;;;;8399638;28;20021;-59
2022/08/19 07:23:40;;;;;;;9.85;8.85;;;;;;;;;;8391872;28;20025;-60
2022/08/19 07:27:40;;;;;;;10.02;8.65;;;;;;;;;;8380782;28;20028;-59
2022/08/19 07:31:40;;;;;;;9.40;7.90;;;;;;;;;;8385788;28;20039;-59
2022/08/19 07:35:41;;;;;;;9.32;7.18;;;;;;;;;;8384241;28;20016;-59
2022/08/19 07:39:41;;;;;;;7.95;7.15;;;;;;;;;;8391974;28;20040;-59
2022/08/19 07:43:43;;;;;;;11.50;9.13;;;;;;;;;;8392952;28;20054;-59
2022/08/19 07:47:43;;;;;;;9.70;8.70;;;;;;;;;;8400294;28;20044;-59
2022/08/19 07:51:44;;;;;;;9.50;7.22;;;;;;;;;;8401092;28;20477;-59
2022/08/19 07:55:44;;;;;;;10.43;8.45;;;;;;;;;;8399605;28;20253;-59
2022/08/19 07:59:44;;;;;;;8.98;8.07;;;;;;;;;;8399871;28;20063;-59
2022/08/19 08:12:43;;;;;;;8.60;7.68;;;;;;;;;;8325733;28;20021;-59
2022/08/19 08:16:45;;;;;;;8.48;7.70;;;;;;;;;;8358231;28;20071;-59
2022/08/19 08:20:45;;;;;;;9.32;7.63;;;;;;;;;;8391914;28;20628;-59
2022/08/19 08:24:45;;;;;;;9.50;8.63;;;;;;;;;;8391810;28;20036;-59
2022/08/19 08:28:47;;;;;;;9.15;8.25;;;;;;;;;;8387773;28;20028;-59
2022/08/19 08:32:48;;;;;;;9.60;8.47;;;;;;;;;;8385389;28;20040;-59
2022/08/19 08:36:48;;;;;;;12.27;9.05;;;;;;;;;;8386820;28;20713;-59
2022/08/19 08:40:55;;;;;;;11.23;8.03;;;;;;;;;;8386958;28;20016;-59
2022/08/19 08:45:01;;;;;;;8.30;7.50;;;;;;;;;;8392523;28;20040;-59
2022/08/19 08:49:01;;;;;;;8.68;6.53;;;;;;;;;;8390910;28;20040;-59
2022/08/19 08:53:02;;;;;;;8.68;6.97;;;;;;;;;;8396227;28;20062;-59
2022/08/19 08:57:03;;;;;;;7.38;6.65;;;;;;;;;;8394500;28;20048;-59
2022/08/19 09:01:06;;;;;;;8.68;6.70;;;;;;;;;;8395817;28;20595;-59
2022/08/19 09:05:08;;;;;;;14.65;7.30;;;;;;;;;;8396870;28;20035;-59
2022/08/19 09:09:21;;;;;;;7.45;6.53;;;;;;;;;;8398627;28;20012;-59
2022/08/19 09:13:47;;;;;;;10.50;7.25;;;;;;;;;;8390620;28;20055;-59
2022/08/19 09:17:47;;;;;;;11.15;8.43;;;;;;;;;;8378601;28;20532;-60
2022/08/19 09:21:49;;;;;;;9.25;8.05;;;;;;;;;;8393322;28;20031;-59
2022/08/19 09:25:49;;;;;;;6.40;5.90;;;;;;;;;;8393740;28;20123;-60
2022/08/19 09:29:50;;;;;;;9.00;8.02;;;;;;;;;;8397469;28;20048;-59
2022/08/19 09:33:51;;;;;;;8.75;7.93;;;;;;;;;;8397827;28;20558;-59
2022/08/19 09:37:51;;;;;;;8.60;7.67;;;;;;;;;;8397167;28;20032;-59
2022/08/19 09:41:52;;;;;;;6.97;6.00;;;;;;;;;;8402420;28;20103;-59
2022/08/19 09:45:52;;;;;;;6.65;5.72;;;;;;;;;;8395853;28;20049;-60
2022/08/19 09:49:53;;;;;;;7.22;6.63;;;;;;;;;;8399785;28;20429;-59
2022/08/19 09:53:54;;;;;;;6.03;5.43;;;;;;;;;;8399608;28;20032;-59
2022/08/19 09:57:54;;;;;;;6.75;6.15;;;;;;;;;;8400307;28;20043;-59
2022/08/19 10:01:55;;;;;;;8.73;5.93;;;;;;;;;;8394101;28;20044;-59
2022/08/19 10:05:56;;;;;;;6.93;5.27;;;;;;;;;;8396711;28;20032;-59
2022/08/19 10:09:56;;;;;;;6.67;6.07;;;;;;;;;;8391861;28;21998;-59
2022/08/19 10:13:56;;;;;;;5.00;4.50;;;;;;;;;;8391582;28;20058;-59
2022/08/19 10:17:57;;;;;;;3.60;3.30;;;;;;;;;;8390061;28;21637;-60
2022/08/19 10:21:58;;;;;;;3.50;3.20;;;;;;;;;;8390954;28;20432;-59
2022/08/19 10:25:59;;;;;;;5.83;3.50;;;;;;;;;;8398874;28;20021;-59
2022/08/19 10:30:00;;;;;;;4.00;3.63;;;;;;;;;;8395573;28;20090;-59
2022/08/19 10:34:00;;;;;;;4.30;3.90;;;;;;;;;;8396171;28;20051;-59
2022/08/19 10:38:03;;;;;;;5.17;3.90;;;;;;;;;;8398417;28;20040;-60
2022/08/19 10:42:06;;;;;;;4.88;3.35;;;;;;;;;;8401153;28;20078;-59
2022/08/19 10:46:08;;;;;;;4.53;3.30;;;;;;;;;;8399496;28;20150;-59
2022/08/19 10:59:05;;;;;;;4.18;3.78;;;;;;;;;;8320242;28;20081;-59
2022/08/19 11:03:05;;;;;;;3.30;3.10;;;;;;;;;;8394328;28;20037;-59
2022/08/19 11:07:06;;;;;;;4.05;3.47;;;;;;;;;;8393179;28;20098;-59
2022/08/19 11:11:07;;;;;;;3.60;3.30;;;;;;;;;;8389278;28;20377;-59
2022/08/19 11:15:10;;;;;;;3.90;3.47;;;;;;;;;;8394839;28;20107;-60
2022/08/19 11:19:11;;;;;;;2.85;2.65;;;;;;;;;;8396793;28;20036;-59
2022/08/19 11:23:13;;;;;;;2.80;2.50;;;;;;;;;;8402278;28;20028;-59
2022/08/19 11:27:14;;;;;;;3.10;2.15;;;;;;;;;;8403771;28;20365;-59
2022/08/19 11:31:17;;;;;;;3.63;2.87;;;;;;;;;;8404646;28;20044;-60
2022/08/19 11:35:19;;;;;;;2.40;2.30;;;;;;;;;;8401621;28;20020;-60
2022/08/19 11:39:20;;;;;;;6.13;2.30;;;;;;;;;;8401635;28;20031;-59
2022/08/19 11:43:20;;;;;;;2.40;2.20;;;;;;;;;;8402628;28;20017;-59
2022/08/19 11:47:20;;;;;;;3.58;2.22;;;;;;;;;;8400835;28;20037;-59
2022/08/19 11:51:22;;;;;;;2.15;1.90;;;;;;;;;;8402305;28;20016;-59
2022/08/19 11:55:22;;;;;;;2.72;1.80;;;;;;;;;;8408078;28;20239;-60
2022/08/19 11:59:23;;;;;;;3.13;2.20;;;;;;;;;;8396400;28;20066;-59
2022/08/19 12:03:24;;;;;;;4.57;2.35;;;;;;;;;;8405282;28;20047;-59
2022/08/19 12:07:25;;;;;;;2.35;2.15;;;;;;;;;;8401890;28;20898;-59
2022/08/19 12:11:25;;;;;;;2.30;2.10;;;;;;;;;;8382338;28;20401;-59
2022/08/19 12:15:30;;;;;;;2.30;2.10;;;;;;;;;;8383402;28;20032;-59
2022/08/19 12:19:30;;;;;;;2.53;2.33;;;;;;;;;;8327894;28;1071147;-59
2022/08/19 12:23:30;;;;;;;2.93;2.20;;;;;;;;;;8360921;28;20032;-59
2022/08/19 12:27:30;;;;;;;3.63;2.13;;;;;;;;;;8364758;28;20150;-59
2022/08/19 12:31:31;;;;;;;2.50;2.30;;;;;;;;;;8372749;28;20543;-59
2022/08/19 12:35:31;;;;;;;8.88;2.33;;;;;;;;;;8375081;28;20031;-59
2022/08/19 12:39:41;;;;;;;2.28;2.08;;;;;;;;;;8375931;28;20083;-59
2022/08/19 12:43:41;;;;;;;3.22;2.00;;;;;;;;;;8373552;28;20047;-59
2022/08/19 12:47:41;;;;;;;3.08;2.22;;;;;;;;;;8373052;28;20039;-59
2022/08/19 12:51:42;;;;;;;4.07;2.50;;;;;;;;;;8380684;28;20051;-59
2022/08/19 12:55:43;;;;;;;3.90;2.10;;;;;;;;;;8373516;28;20040;-59
2022/08/19 12:59:43;;;;;;;6.40;2.20;;;;;;;;;;8374915;28;20070;-59
2022/08/19 13:03:45;;;;;;;2.50;2.30;;;;;;;;;;8378380;28;20044;-60
2022/08/19 13:07:46;;;;;;;2.50;2.22;;;;;;;;;;8388515;28;20354;-60
2022/08/19 13:11:46;;;;;;;3.03;2.38;;;;;;;;;;8392132;28;20058;-59
2022/08/19 13:15:47;;;;;;;3.80;2.17;;;;;;;;;;8395921;28;20040;-59
2022/08/19 13:19:47;;;;;;;2.38;2.17;;;;;;;;;;8393067;28;20108;-60
2022/08/19 13:23:48;;;;;;;3.05;2.20;;;;;;;;;;8385226;28;20567;-59
2022/08/19 13:27:49;;;;;;;2.20;2.10;;;;;;;;;;8379981;28;20688;-60
2022/08/19 13:36:08;;;;;;;4.85;2.58;;;;;;;;;;8380585;28;20035;-59
2022/08/19 13:40:27;;;;;;;7.97;2.40;;;;;;;;;;8386813;28;20020;-59
2022/08/19 13:44:29;;;;;;;2.30;2.10;;;;;;;;;;8386632;28;20603;-59
2022/08/19 13:48:30;;;;;;;2.05;1.80;;;;;;;;;;8389094;28;20036;-59
2022/08/19 13:52:31;;;;;;;2.40;2.20;;;;;;;;;;8397343;28;20062;-59
2022/08/19 13:56:31;;;;;;;2.10;2.00;;;;;;;;;;8393433;28;20048;-59
2022/08/19 14:00:33;;;;;;;3.47;2.50;;;;;;;;;;8383006;28;20032;-59
2022/08/19 14:04:33;;;;;;;2.53;2.30;;;;;;;;;;8384027;28;20071;-60
2022/08/19 14:08:33;;;;;;;2.55;2.17;;;;;;;;;;8396040;28;20025;-59
2022/08/19 14:12:34;;;;;;;2.83;2.30;;;;;;;;;;8395672;28;20031;-59
2022/08/19 14:16:34;;;;;;;2.53;2.33;;;;;;;;;;8398092;28;20032;-59
2022/08/19 14:20:35;;;;;;;2.70;2.50;;;;;;;;;;8392716;28;20036;-59
2022/08/19 14:24:41;;;;;;;3.10;2.40;;;;;;;;;;8396053;28;20177;-59
2022/08/19 14:28:42;;;;;;;11.38;2.70;;;;;;;;;;8390234;28;20097;-59
2022/08/19 14:32:43;;;;;;;3.13;2.70;;;;;;;;;;8382594;28;20422;-59
2022/08/19 14:36:44;;;;;;;3.90;2.70;;;;;;;;;;8380240;28;20031;-59
2022/08/19 14:40:48;;;;;;;2.30;2.20;;;;;;;;;;8384321;28;20126;-59
2022/08/19 14:44:48;;;;;;;2.95;2.75;;;;;;;;;;8378582;28;20025;-59
2022/08/19 14:48:49;;;;;;;6.82;2.90;;;;;;;;;;8372102;28;20108;-59
2022/08/19 14:52:49;;;;;;;3.10;2.90;;;;;;;;;;8375532;28;20040;-59
2022/08/19 14:56:50;;;;;;;4.25;3.10;;;;;;;;;;8385010;28;20031;-59
2022/08/19 15:00:50;;;;;;;3.13;2.83;;;;;;;;;;8385485;28;20465;-59
2022/08/19 15:04:50;;;;;;;3.42;3.22;;;;;;;;;;8407226;28;20036;-59
2022/08/19 15:08:51;;;;;;;4.97;3.40;;;;;;;;;;8388476;28;20060;-59
2022/08/19 15:12:52;;;;;;;4.78;3.60;;;;;;;;;;8398539;28;20023;-59
2022/08/19 15:16:53;;;;;;;3.85;3.50;;;;;;;;;;8388969;28;20056;-59
2022/08/19 15:20:53;;;;;;;6.07;3.30;;;;;;;;;;8375534;28;20077;-59
2022/08/19 15:24:54;;;;;;;3.83;3.53;;;;;;;;;;8378479;28;20025;-59
2022/08/19 15:28:55;;;;;;;4.18;3.80;;;;;;;;;;8384332;28;20017;-59
2022/08/19 15:32:58;;;;;;;4.13;3.78;;;;;;;;;;8385045;28;20134;-59
2022/08/19 15:36:58;;;;;;;3.88;3.55;;;;;;;;;;8384131;28;20311;-60
2022/08/19 15:41:22;;;;;;;5.50;3.73;;;;;;;;;;8383329;28;20024;-59
2022/08/19 15:45:20;;;;;;;4.15;3.75;;;;;;;;;;8380502;28;20270;-60
2022/08/19 15:49:21;;;;;;;6.18;3.88;;;;;;;;;;8381744;28;20024;-59
2022/08/19 15:53:24;;;;;;;4.50;4.10;;;;;;;;;;8397330;28;20020;-59
2022/08/19 16:10:05;;;;;;;5.40;4.30;;;;;;;;;;8383830;28;20020;-59
2022/08/19 16:14:08;;;;;;;5.50;3.95;;;;;;;;;;8380951;28;20013;-59
2022/08/19 16:18:08;;;;;;;4.40;4.10;;;;;;;;;;8379552;28;20098;-59
2022/08/19 16:22:10;;;;;;;7.57;4.35;;;;;;;;;;8375383;28;20064;-59
2022/08/19 16:26:11;;;;;;;7.80;4.25;;;;;;;;;;8379920;28;20105;-59
2022/08/19 16:30:12;;;;;;;9.00;4.53;;;;;;;;;;8372933;28;20097;-59
2022/08/19 16:34:12;;;;;;;6.95;4.70;;;;;;;;;;8376126;28;20020;-60
2022/08/19 16:38:13;;;;;;;5.82;4.40;;;;;;;;;;8375598;28;20031;-59
2022/08/19 16:42:15;;;;;;;4.85;4.35;;;;;;;;;;8377110;28;20205;-59
2022/08/19 16:46:19;;;;;;;4.80;4.40;;;;;;;;;;8376832;28;20536;-59
2022/08/19 16:50:20;;;;;;;7.82;4.70;;;;;;;;;;8375686;28;20051;-59
2022/08/19 16:54:21;;;;;;;38.07;5.40;;;;;;;;;;8377330;28;20429;-59
2022/08/19 16:58:24;;;;;;;8.95;4.32;;;;;;;;;;8380778;28;20020;-59
2022/08/19 17:02:24;;;;;;;16.50;5.00;;;;;;;;;;8372853;28;20116;-59
2022/08/19 17:06:26;;;;;;;7.60;4.50;;;;;;;;;;8380315;28;20903;-59
2022/08/19 17:10:26;;;;;;;4.40;4.00;;;;;;;;;;8383318;28;20032;-59
2022/08/19 17:14:26;;;;;;;4.70;4.17;;;;;;;;;;8384940;28;20489;-59
2022/08/19 17:18:27;;;;;;;4.85;4.45;;;;;;;;;;8379702;28;20294;-59
2022/08/19 17:22:29;;;;;;;5.50;4.50;;;;;;;;;;8372083;28;20035;-59
2022/08/19 17:26:30;;;;;;;4.93;4.45;;;;;;;;;;8378664;28;20032;-59
2022/08/19 17:30:30;;;;;;;4.78;3.90;;;;;;;;;;8373316;28;20126;-59
2022/08/19 17:34:30;;;;;;;6.00;4.20;;;;;;;;;;8368185;28;20028;-59
2022/08/19 17:38:31;;;;;;;4.68;4.28;;;;;;;;;;8369076;28;20024;-59
2022/08/19 17:42:31;;;;;;;4.83;4.43;;;;;;;;;;8368151;28;20119;-59
2022/08/19 17:46:31;;;;;;;7.87;4.57;;;;;;;;;;8370323;28;20043;-59
2022/08/19 17:50:32;;;;;;;51.78;5.25;;;;;;;;;;8370093;28;20583;-59
2022/08/19 17:54:32;;;;;;;9.85;4.60;;;;;;;;;;8374897;28;20017;-59
2022/08/19 17:58:32;;;;;;;4.15;3.50;;;;;;;;;;8367906;28;20020;-59
2022/08/19 18:02:33;;;;;;;7.57;4.18;;;;;;;;;;8363269;28;20032;-59
2022/08/19 18:06:35;;;;;;;4.50;3.83;;;;;;;;;;8366479;28;20032;-59
2022/08/19 18:10:36;;;;;;;6.28;4.10;;;;;;;;;;8365408;28;20440;-59
2022/08/19 18:14:37;;;;;;;4.72;3.72;;;;;;;;;;8371397;28;20028;-59
2022/08/19 18:18:39;;;;;;;5.35;3.70;;;;;;;;;;8372027;28;20056;-59
2022/08/19 18:22:41;;;;;;;4.53;4.10;;;;;;;;;;8369190;28;20089;-59
2022/08/19 18:26:42;;;;;;;4.82;3.95;;;;;;;;;;8359950;28;20455;-59
2022/08/19 18:30:42;;;;;;;4.63;4.15;;;;;;;;;;8360260;28;20048;-59
2022/08/19 18:34:44;;;;;;;4.28;3.88;;;;;;;;;;8363109;28;20032;-59
2022/08/19 18:51:31;;;;;;;4.25;3.85;;;;;;;;;;8369395;28;20036;-59
2022/08/19 18:55:31;;;;;;;4.50;4.10;;;;;;;;;;8370011;28;20267;-59
2022/08/19 18:59:31;;;;;;;5.22;4.47;;;;;;;;;;8368800;28;20131;-59
2022/08/19 19:03:32;;;;;;;5.82;4.68;;;;;;;;;;8374030;28;20040;-59
2022/08/19 19:07:33;;;;;;;5.60;5.07;;;;;;;;;;8375145;28;20017;-59
2022/08/19 19:11:36;;;;;;;5.60;5.10;;;;;;;;;;8381291;28;20068;-59
2022/08/19 19:15:38;;;;;;;6.05;5.43;;;;;;;;;;8382650;28;20131;-59
2022/08/19 19:19:41;;;;;;;7.10;5.22;;;;;;;;;;8379649;28;20078;-59
2022/08/19 19:23:41;;;;;;;5.50;5.00;;;;;;;;;;8381132;28;20062;-59
2022/08/19 19:27:41;;;;;;;5.70;5.00;;;;;;;;;;8374643;28;20028;-59
2022/08/19 19:31:43;;;;;;;7.22;5.40;;;;;;;;;;8380654;28;20358;-58
2022/08/19 19:35:45;;;;;;;6.22;5.05;;;;;;;;;;8385296;28;20025;-59
2022/08/19 19:39:46;;;;;;;6.35;4.93;;;;;;;;;;8387513;28;20032;-58
2022/08/19 19:43:47;;;;;;;6.28;4.72;;;;;;;;;;8387968;28;20021;-57
2022/08/19 19:47:48;;;;;;;4.93;4.38;;;;;;;;;;8366010;28;20355;-57
2022/08/19 19:51:50;;;;;;;5.20;4.70;;;;;;;;;;8358737;28;20230;-57
2022/08/19 19:55:53;;;;;;;6.38;4.50;;;;;;;;;;8366663;28;20277;-58
2022/08/19 19:59:53;;;;;;;5.32;4.82;;;;;;;;;;8366830;28;20029;-58
2022/08/19 20:03:54;;;;;;;5.22;4.50;;;;;;;;;;8366037;28;20028;-58
2022/08/19 20:12:13;;;;;;;8.18;4.90;;;;;;;;;;8369208;28;20078;-57
2022/08/19 20:16:13;;;;;;;6.18;4.38;;;;;;;;;;8368443;28;20033;-58
2022/08/19 20:20:14;;;;;;;5.20;4.60;;;;;;;;;;8367035;28;20032;-58
2022/08/19 20:24:16;;;;;;;4.95;4.55;;;;;;;;;;8369538;28;20524;-57
2022/08/19 20:28:16;;;;;;;4.80;4.40;;;;;;;;;;8369583;28;20312;-57
2022/08/19 20:32:16;;;;;;;4.97;4.47;;;;;;;;;;8370668;28;20456;-58
2022/08/19 20:36:17;;;;;;;7.18;4.78;;;;;;;;;;8370593;28;20021;-57
2022/08/19 20:40:18;;;;;;;6.60;4.85;;;;;;;;;;8371524;28;20467;-57
2022/08/19 20:44:18;;;;;;;6.73;4.60;;;;;;;;;;8371485;28;20528;-57
2022/08/19 20:48:18;;;;;;;4.80;4.03;;;;;;;;;;8372777;28;21428;-57
2022/08/19 20:52:19;;;;;;;4.95;3.70;;;;;;;;;;8374768;28;20028;-57
2022/08/19 20:56:19;;;;;;;6.00;3.35;;;;;;;;;;8374116;28;20016;-57
2022/08/19 21:00:20;;;;;;;6.97;3.30;;;;;;;;;;8372522;28;20500;-57
2022/08/19 21:04:21;;;;;;;5.57;2.85;;;;;;;;;;8374240;28;20032;-57
2022/08/19 21:08:24;;;;;;;4.35;3.30;;;;;;;;;;8373032;28;20107;-58
2022/08/19 21:12:25;;;;;;;8.07;2.95;;;;;;;;;;8369672;28;20020;-58
2022/08/19 21:16:27;;;;;;;3.97;3.08;;;;;;;;;;8363060;28;20473;-58
2022/08/19 21:20:28;;;;;;;5.57;3.47;;;;;;;;;;8364819;28;20472;-58
2022/08/19 21:24:28;;;;;;;3.38;3.00;;;;;;;;;;8367525;28;20029;-57
2022/08/19 21:28:28;;;;;;;4.77;3.00;;;;;;;;;;8366994;28;20036;-58
2022/08/19 21:32:29;;;;;;;4.18;3.28;;;;;;;;;;8368494;28;20105;-58
2022/08/19 21:36:29;;;;;;;3.05;2.75;;;;;;;;;;8367355;28;20025;-58
2022/08/19 21:40:29;;;;;;;4.63;2.95;;;;;;;;;;8368358;28;20048;-58
2022/08/19 21:44:31;;;;;;;5.13;2.73;;;;;;;;;;8365057;28;20028;-57
2022/08/19 21:48:32;;;;;;;3.38;2.63;;;;;;;;;;8362859;28;20040;-57
2022/08/19 21:52:32;;;;;;;3.00;2.70;;;;;;;;;;8364392;28;20335;-57
2022/08/19 21:56:32;;;;;;;2.72;2.33;;;;;;;;;;8380821;28;20061;-57
2022/08/19 22:00:34;;;;;;;4.63;2.78;;;;;;;;;;8386149;28;20147;-57
2022/08/19 22:04:34;;;;;;;4.28;2.42;;;;;;;;;;8378735;28;20024;-57
2022/08/19 22:08:34;;;;;;;6.20;2.90;;;;;;;;;;8375569;28;20734;-56
2022/08/19 22:12:38;;;;;;;3.63;2.40;;;;;;;;;;8376188;28;20020;-55
2022/08/19 22:16:38;;;;;;;4.47;2.60;;;;;;;;;;8373668;28;20496;-57
2022/08/19 22:20:38;;;;;;;2.83;2.50;;;;;;;;;;8375327;28;20075;-57
2022/08/19 22:24:38;;;;;;;4.27;2.27;;;;;;;;;;8382274;28;20267;-58
2022/08/19 22:28:39;;;;;;;1.80;1.70;;;;;;;;;;8377326;28;20032;-58
2022/08/19 22:32:50;;;;;;;2.25;1.77;;;;;;;;;;8381082;28;20037;-57
2022/08/19 22:36:50;;;;;;;3.38;2.08;;;;;;;;;;8380609;28;20095;-57
2022/08/19 22:40:51;;;;;;;2.78;1.60;;;;;;;;;;8379731;28;20036;-57
2022/08/19 22:44:55;;;;;;;3.22;1.20;;;;;;;;;;8382083;28;20024;-56
2022/08/19 22:48:55;;;;;;;4.43;1.60;;;;;;;;;;8381334;28;20489;-57
2022/08/19 22:52:57;;;;;;;1.27;1.17;;;;;;;;;;8385562;28;20039;-57
2022/08/19 22:56:57;;;;;;;1.30;1.20;;;;;;;;;;8381455;28;20531;-58
2022/08/19 23:00:59;;;;;;;1.20;1.10;;;;;;;;;;8379893;28;20037;-57
2022/08/19 23:05:01;;;;;;;1.00;0.90;;;;;;;;;;8386377;28;20032;-57
2022/08/19 23:09:03;;;;;;;1.52;1.17;;;;;;;;;;8386335;28;20023;-57
2022/08/19 23:13:03;;;;;;;1.00;1.00;;;;;;;;;;8383978;28;20047;-57
2022/08/19 23:17:05;;;;;;;0.95;0.90;;;;;;;;;;8378403;28;20735;-58
2022/08/19 23:21:08;;;;;;;0.90;0.90;;;;;;;;;;8379780;28;20028;-58
2022/08/19 23:25:13;;;;;;;0.80;0.80;;;;;;;;;;8378864;28;20031;-57
2022/08/19 23:33:34;;;;;;;0.82;0.68;;;;;;;;;;8378973;28;20575;-57
2022/08/19 23:37:36;;;;;;;0.90;0.90;;;;;;;;;;8384014;28;20028;-56
2022/08/19 23:41:36;;;;;;;0.80;0.80;;;;;;;;;;8382818;28;20036;-57
2022/08/19 23:45:37;;;;;;;1.10;0.85;;;;;;;;;;8378817;28;20571;-57
2022/08/19 23:49:37;;;;;;;0.90;0.80;;;;;;;;;;8378513;28;20033;-57
2022/08/19 23:53:39;;;;;;;0.80;0.80;;;;;;;;;;8377875;28;20674;-57
2022/08/19 23:57:39;;;;;;;0.80;0.80;;;;;;;;;;8376071;28;20393;-58
